Beloit, Kansas
Current Conditions -  °F | °C
As of 10:55 AM on Wednesday 22 Oct 2014 (Local Time) from KCNK Reporting Station
Clear Clear  
Wind Chill: 69°   Ceiling: Unl
Heat Index: 69°   Visibility: NA
Dew Point: 56°   Wind: 13mph
Humidity: 63%   Direction: 170°S
Pressure: 30.08"   Gusts: NA
Location:  39.46°N, 98.11°W
Report Text: KCNK 221555Z AUTO 17011KT CLR 21/13 A3008 RMK AO2 SLP175 T02060133 $
Loading
Personal Weather Stations






























Interactive Weather Map New forecast layout! Learn more

10-Day Weather Forecast

Advertisements
Track Severe Weather on mobile